Terminal Aerodrome Forecast
Issued by NWS Omaha/Valley, NE

Home | Current Version | Previous Version | Graphics & Text | Print | Product List | Glossary On
Versions: 1 2 3 4 5 6 7 8 9 10 11 12 13 14 15 16 17 18 19 20 21 22 23 24 25 26 27 28 29
000
FTUS43 KOAX 201720
TAFOFK
TAF
KOFK 201720Z 2018/2118 15014KT P6SM SCT090 BKN150
     FM210100 17010KT P6SM SCT100 BKN250
      TEMPO 2105/2109 4SM TSRA BKN040CB
     FM210900 19007KT P6SM SCT040 BKN110 PROB30 2109/2115 4SM TSRA
      OVC040CB
     FM211500 21008KT P6SM BKN100=

USA.gov is the U.S. government's official web portal to all federal, state and local government web resources and services.